createdAt,value
2019-02-21T00:02:15.828Z,5.90
2019-02-21T00:04:44.566Z,5.90
2019-02-21T00:07:13.486Z,5.80
2019-02-21T00:09:42.194Z,5.80
2019-02-21T00:12:11.346Z,5.70
2019-02-21T00:14:40.090Z,5.70
2019-02-21T00:17:08.743Z,5.70
2019-02-21T00:19:38.660Z,5.70
2019-02-21T00:22:07.448Z,5.70
2019-02-21T00:24:36.466Z,5.70
2019-02-21T00:27:05.313Z,5.70
2019-02-21T00:29:34.038Z,5.70
2019-02-21T00:32:02.728Z,5.70
2019-02-21T00:34:31.506Z,5.70
2019-02-21T00:37:00.163Z,5.70
2019-02-21T00:39:28.855Z,5.70
2019-02-21T00:41:59.289Z,5.70
2019-02-21T00:44:30.633Z,5.70
2019-02-21T00:46:59.422Z,5.70
2019-02-21T00:49:28.195Z,5.70
2019-02-21T00:51:57.200Z,5.70
2019-02-21T00:54:25.989Z,5.60
2019-02-21T00:56:54.685Z,5.60
2019-02-21T00:59:23.532Z,5.60
2019-02-21T01:01:52.264Z,5.60
2019-02-21T01:04:21.069Z,5.50
2019-02-21T01:06:49.847Z,5.60
2019-02-21T01:09:18.611Z,5.50
2019-02-21T01:11:47.641Z,5.50
2019-02-21T01:14:17.452Z,5.50
2019-02-21T01:16:46.052Z,5.50
2019-02-21T01:19:14.899Z,5.40
2019-02-21T01:21:43.638Z,5.40
2019-02-21T01:24:12.424Z,5.40
2019-02-21T01:26:41.096Z,5.30
2019-02-21T01:29:09.578Z,5.30
2019-02-21T01:31:38.013Z,5.20
2019-02-21T01:34:06.715Z,5.20
2019-02-21T01:36:35.195Z,5.20
2019-02-21T01:39:04.900Z,5.20
2019-02-21T01:41:33.322Z,5.20
2019-02-21T01:44:01.751Z,5.20
2019-02-21T01:46:30.167Z,5.20
2019-02-21T01:48:59.526Z,5.20
2019-02-21T01:51:28.063Z,5.10
2019-02-21T01:53:56.492Z,5.10
2019-02-21T01:56:24.921Z,5.10
2019-02-21T01:58:53.351Z,5.10
2019-02-21T02:01:21.771Z,5.10
2019-02-21T02:03:50.207Z,5.10
2019-02-21T02:06:18.647Z,5.10
2019-02-21T02:08:47.414Z,5.10
2019-02-21T02:11:15.835Z,5.10
2019-02-21T02:13:44.266Z,5.00
2019-02-21T02:16:12.703Z,5.10
2019-02-21T02:18:41.134Z,5.10
2019-02-21T02:21:09.554Z,5.20
2019-02-21T02:23:37.988Z,5.20
2019-02-21T02:26:06.418Z,5.20
2019-02-21T02:28:34.900Z,5.20
2019-02-21T02:31:03.361Z,5.20
2019-02-21T02:33:31.797Z,5.20
2019-02-21T02:36:00.220Z,5.30
2019-02-21T02:38:28.650Z,5.30
2019-02-21T02:40:57.080Z,5.30
2019-02-21T02:43:25.513Z,5.30
2019-02-21T02:45:53.947Z,5.30
2019-02-21T02:48:22.388Z,5.30
2019-02-21T02:50:50.809Z,5.40
2019-02-21T02:53:19.231Z,5.40
2019-02-21T02:55:47.705Z,5.30
2019-02-21T02:58:16.184Z,5.40
2019-02-21T03:00:44.663Z,5.40
2019-02-21T03:03:13.225Z,5.40
2019-02-21T03:05:41.667Z,5.30
2019-02-21T03:08:10.110Z,5.30
2019-02-21T03:10:38.612Z,5.30
2019-02-21T03:13:07.040Z,5.30
2019-02-21T03:15:35.490Z,5.30
2019-02-21T03:18:03.907Z,5.20
2019-02-21T03:20:32.335Z,5.20
2019-02-21T03:23:00.758Z,5.20
2019-02-21T03:25:29.207Z,5.10
2019-02-21T03:27:57.637Z,5.10
2019-02-21T03:30:26.070Z,5.10
2019-02-21T03:32:54.492Z,5.10
2019-02-21T03:35:23.158Z,5.10
2019-02-21T03:37:51.660Z,5.10
2019-02-21T03:40:20.167Z,5.10
2019-02-21T03:42:48.603Z,5.00
2019-02-21T03:45:17.575Z,5.00
2019-02-21T03:47:45.992Z,5.00
2019-02-21T03:50:14.498Z,5.00
2019-02-21T03:52:42.913Z,5.00
2019-02-21T03:55:11.344Z,4.90
2019-02-21T03:57:39.781Z,4.90
2019-02-21T04:00:30.008Z,4.90
2019-02-21T04:02:58.432Z,4.90
2019-02-21T04:05:26.873Z,4.90
2019-02-21T04:07:55.282Z,4.90
2019-02-21T04:10:23.717Z,4.90
2019-02-21T04:12:52.157Z,4.90
2019-02-21T04:15:20.594Z,4.90
2019-02-21T04:17:49.018Z,4.90
2019-02-21T04:20:17.776Z,4.90
2019-02-21T04:22:46.208Z,4.90
2019-02-21T04:25:14.651Z,4.90
2019-02-21T04:27:43.154Z,4.90
2019-02-21T04:30:11.688Z,4.80
2019-02-21T04:32:40.107Z,4.80
2019-02-21T04:35:08.621Z,4.80
2019-02-21T04:37:37.037Z,4.90
2019-02-21T04:40:06.516Z,4.90
2019-02-21T04:42:34.940Z,5.00
2019-02-21T04:45:03.561Z,5.00
2019-02-21T04:47:32.044Z,5.00
2019-02-21T04:50:00.634Z,5.00
2019-02-21T04:52:29.126Z,5.00
2019-02-21T04:54:57.589Z,5.00
2019-02-21T04:57:26.031Z,5.10
2019-02-21T04:59:54.450Z,5.10
2019-02-21T05:02:28.900Z,5.10
2019-02-21T05:04:53.044Z,5.20
2019-02-21T05:07:21.476Z,5.20
2019-02-21T05:10:09.251Z,5.10
2019-02-21T05:12:37.687Z,5.20
2019-02-21T05:15:06.283Z,5.30
2019-02-21T05:17:34.714Z,5.30
2019-02-21T05:20:03.615Z,5.30
2019-02-21T05:22:32.130Z,5.30
2019-02-21T05:25:00.563Z,5.30
2019-02-21T05:27:30.649Z,5.30
2019-02-21T05:29:59.083Z,5.30
2019-02-21T05:32:45.339Z,5.30
2019-02-21T05:35:15.400Z,5.30
2019-02-21T05:38:01.951Z,5.30
2019-02-21T05:40:32.011Z,5.30
2019-02-21T05:43:14.336Z,5.30
2019-02-21T05:45:53.189Z,5.30
2019-02-21T05:48:23.251Z,5.40
2019-02-21T05:53:45.423Z,5.40
2019-02-21T05:56:18.188Z,5.40
2019-02-21T05:58:51.139Z,5.50
2019-02-21T06:01:21.235Z,5.40
2019-02-21T06:03:57.181Z,5.50
2019-02-21T06:06:30.168Z,5.50
2019-02-21T06:09:03.200Z,5.50
2019-02-21T06:11:48.397Z,5.50
2019-02-21T06:14:34.934Z,5.50
2019-02-21T06:17:10.744Z,5.60
2019-02-21T06:20:09.128Z,5.60
2019-02-21T06:22:39.201Z,5.60
2019-02-21T06:25:09.280Z,5.60
2019-02-21T06:27:39.356Z,5.60
2019-02-21T06:30:16.111Z,5.60
2019-02-21T06:33:05.320Z,5.60
2019-02-21T06:35:34.107Z,5.60
2019-02-21T06:38:02.543Z,5.70
2019-02-21T06:40:30.979Z,5.70
2019-02-21T06:42:59.405Z,5.70
2019-02-21T06:45:27.844Z,5.80
2019-02-21T06:47:56.262Z,5.80
2019-02-21T06:50:27.065Z,5.80
2019-02-21T06:52:54.844Z,5.80
2019-02-21T06:55:23.298Z,5.80
2019-02-21T06:57:51.733Z,5.80
2019-02-21T07:00:20.172Z,5.90
2019-02-21T07:02:48.601Z,5.90
2019-02-21T07:05:17.956Z,5.90
2019-02-21T07:07:46.390Z,6.00
2019-02-21T07:10:14.823Z,6.00
2019-02-21T07:12:43.262Z,5.90
2019-02-21T07:15:11.687Z,6.00
2019-02-21T07:17:48.901Z,6.00
2019-02-21T07:20:12.742Z,6.10
2019-02-21T07:22:40.446Z,6.10
2019-02-21T07:25:10.537Z,6.10
2019-02-21T07:27:38.956Z,6.10
2019-02-21T07:30:19.476Z,6.20
2019-02-21T07:32:40.019Z,6.20
2019-02-21T07:35:08.455Z,6.20
2019-02-21T07:37:36.879Z,6.20
2019-02-21T07:40:06.655Z,6.20
2019-02-21T07:42:35.079Z,6.30
2019-02-21T07:45:03.649Z,6.30
2019-02-21T07:47:32.083Z,6.30
2019-02-21T07:50:00.569Z,6.30
2019-02-21T07:52:29.044Z,6.40
2019-02-21T07:55:01.895Z,6.40
2019-02-21T07:57:27.647Z,6.50
2019-02-21T07:59:56.073Z,6.40
2019-02-21T08:02:24.562Z,6.50
2019-02-21T08:04:53.049Z,6.60
2019-02-21T08:07:21.535Z,6.70
2019-02-21T08:09:49.964Z,6.70
2019-02-21T08:12:18.430Z,6.70
2019-02-21T08:14:46.922Z,6.80
2019-02-21T08:17:16.308Z,6.80
2019-02-21T08:19:44.886Z,6.90
2019-02-21T08:22:32.656Z,6.90
2019-02-21T08:25:01.081Z,7.00
2019-02-21T08:27:29.520Z,7.20
2019-02-21T08:29:57.949Z,7.20
2019-02-21T08:32:28.027Z,7.30
2019-02-21T08:34:56.458Z,7.30
2019-02-21T08:37:24.896Z,7.30
2019-02-21T08:39:53.333Z,7.30
2019-02-21T08:42:21.763Z,7.40
2019-02-21T08:44:50.194Z,7.40
2019-02-21T08:47:18.620Z,7.50
2019-02-21T08:49:47.047Z,7.50
2019-02-21T08:52:15.479Z,7.50
2019-02-21T08:54:43.911Z,7.50
2019-02-21T08:57:12.348Z,7.50
2019-02-21T08:59:42.387Z,7.60
2019-02-21T09:02:10.906Z,7.60
2019-02-21T09:04:39.341Z,7.70
2019-02-21T09:07:07.794Z,7.60
2019-02-21T09:09:36.240Z,7.70
2019-02-21T09:12:05.679Z,7.70
2019-02-21T09:14:34.394Z,7.80
2019-02-21T09:17:02.848Z,7.90
2019-02-21T09:19:31.304Z,7.90
2019-02-21T09:21:59.746Z,8.00
2019-02-21T09:24:38.427Z,8.30
2019-02-21T09:27:00.257Z,8.10
2019-02-21T09:29:28.490Z,8.00
2019-02-21T09:31:56.944Z,8.10
2019-02-21T09:34:25.359Z,8.10
2019-02-21T09:36:53.816Z,8.10
2019-02-21T09:39:22.292Z,7.90
2019-02-21T09:41:50.847Z,7.90
2019-02-21T09:44:19.279Z,7.80
2019-02-21T09:46:48.418Z,7.70
2019-02-21T09:49:16.848Z,7.70
2019-02-21T09:51:45.378Z,7.70
2019-02-21T09:54:13.803Z,7.80
2019-02-21T09:56:52.096Z,7.90
2019-02-21T09:59:12.409Z,8.00
2019-02-21T10:01:40.845Z,8.10
2019-02-21T10:04:09.366Z,8.20
2019-02-21T10:06:37.874Z,8.40
2019-02-21T10:09:06.478Z,8.40
2019-02-21T10:11:34.899Z,8.40
2019-02-21T10:14:03.335Z,8.20
2019-02-21T10:16:31.775Z,8.10
2019-02-21T10:19:00.213Z,8.10
2019-02-21T10:21:28.649Z,8.00
2019-02-21T10:23:57.101Z,8.00
2019-02-21T10:26:25.611Z,7.90
2019-02-21T10:28:54.125Z,8.00
2019-02-21T10:31:22.567Z,7.90
2019-02-21T10:33:51.067Z,7.80
2019-02-21T10:36:19.494Z,7.80
2019-02-21T10:38:48.574Z,7.90
2019-02-21T10:41:17.023Z,7.90
2019-02-21T10:43:45.505Z,7.90
2019-02-21T10:46:13.976Z,7.90
2019-02-21T10:48:42.415Z,7.90
2019-02-21T10:51:10.835Z,7.90
2019-02-21T10:53:39.321Z,7.90
2019-02-21T10:56:08.134Z,8.00
2019-02-21T10:58:36.567Z,8.10
2019-02-21T11:01:05.345Z,8.20
2019-02-21T11:03:33.801Z,8.20
2019-02-21T11:06:02.241Z,8.10
2019-02-21T11:08:30.691Z,8.10
2019-02-21T11:10:59.191Z,8.20
2019-02-21T11:13:27.619Z,8.20
2019-02-21T11:15:56.047Z,8.20
2019-02-21T11:18:24.491Z,8.20
2019-02-21T11:20:52.918Z,8.10
2019-02-21T11:23:21.414Z,8.20
2019-02-21T11:25:49.847Z,8.20
2019-02-21T11:28:18.581Z,8.10
2019-02-21T11:30:47.018Z,8.10
2019-02-21T11:33:15.542Z,8.10
2019-02-21T11:35:43.967Z,8.10
2019-02-21T11:38:12.413Z,8.10
2019-02-21T11:40:40.836Z,8.20
2019-02-21T11:43:09.279Z,8.30
2019-02-21T11:45:37.783Z,8.30
2019-02-21T11:48:09.005Z,8.40
2019-02-21T11:50:36.555Z,8.50
2019-02-21T11:53:05.056Z,8.60
2019-02-21T11:55:33.481Z,8.60
2019-02-21T11:58:01.929Z,8.60
2019-02-21T12:00:30.995Z,8.60
2019-02-21T12:02:59.445Z,8.70
2019-02-21T12:05:31.461Z,8.80
2019-02-21T12:07:58.023Z,8.90
2019-02-21T12:10:26.463Z,8.90
2019-02-21T12:12:54.917Z,8.90
2019-02-21T12:15:23.412Z,9.00
2019-02-21T12:17:51.841Z,9.10
2019-02-21T12:20:20.641Z,9.20
2019-02-21T12:22:49.231Z,9.30
2019-02-21T12:25:21.029Z,9.40
2019-02-21T12:27:49.455Z,9.50
2019-02-21T12:30:19.621Z,9.60
2019-02-21T12:32:48.788Z,9.80
2019-02-21T12:35:28.709Z,10.30
2019-02-21T12:37:47.395Z,10.40
2019-02-21T12:40:21.127Z,10.60
2019-02-21T12:42:49.554Z,10.60
2019-02-21T12:45:24.062Z,10.70
2019-02-21T12:47:54.039Z,10.70
2019-02-21T12:50:22.823Z,10.50
2019-02-21T12:52:51.271Z,10.70
2019-02-21T12:55:28.000Z,11.10
2019-02-21T12:57:49.955Z,10.80
2019-02-21T13:00:19.920Z,10.70
2019-02-21T13:02:48.828Z,10.90
2019-02-21T13:05:17.448Z,10.70
2019-02-21T13:07:46.056Z,10.50
2019-02-21T13:10:22.237Z,10.50
2019-02-21T13:12:50.674Z,10.60
2019-02-21T13:15:19.124Z,10.40
2019-02-21T13:17:47.624Z,10.30
2019-02-21T13:20:16.068Z,10.30
2019-02-21T13:22:44.495Z,10.30
2019-02-21T13:25:15.354Z,10.20
2019-02-21T13:27:43.781Z,10.30
2019-02-21T13:30:14.364Z,10.20
2019-02-21T13:32:42.877Z,10.30
2019-02-21T13:35:11.669Z,10.20
2019-02-21T13:37:40.105Z,10.20
2019-02-21T13:40:16.358Z,10.20
2019-02-21T13:42:44.819Z,10.20
2019-02-21T13:45:36.750Z,10.20
2019-02-21T13:48:05.396Z,10.20
2019-02-21T13:50:33.819Z,10.20
2019-02-21T13:53:02.375Z,10.20
2019-02-21T13:55:30.851Z,10.20
2019-02-21T13:57:59.402Z,10.20
2019-02-21T14:00:27.844Z,10.20
2019-02-21T14:02:56.278Z,10.20
2019-02-21T14:05:24.721Z,10.10
2019-02-21T14:07:53.267Z,10.10
2019-02-21T14:10:21.792Z,10.20
2019-02-21T14:12:50.231Z,10.20
2019-02-21T14:15:26.900Z,10.20
2019-02-21T14:17:55.342Z,10.30
2019-02-21T14:20:23.783Z,10.50
2019-02-21T14:22:52.216Z,10.50
2019-02-21T14:25:20.668Z,10.40
2019-02-21T14:27:49.939Z,10.40
2019-02-21T14:30:20.003Z,10.50
2019-02-21T14:32:48.954Z,10.50
2019-02-21T14:35:17.483Z,10.50
2019-02-21T14:37:45.911Z,10.50
2019-02-21T14:40:15.701Z,10.50
2019-02-21T14:42:44.176Z,10.50
2019-02-21T14:45:17.505Z,10.50
2019-02-21T14:47:45.947Z,10.60
2019-02-21T14:50:14.511Z,10.60
2019-02-21T14:52:42.949Z,10.60
2019-02-21T14:55:17.961Z,10.60
2019-02-21T14:57:46.471Z,10.50
2019-02-21T15:00:22.536Z,10.50
2019-02-21T15:02:50.978Z,10.40
2019-02-21T15:05:19.943Z,10.40
2019-02-21T15:07:49.200Z,10.30
2019-02-21T15:10:18.328Z,10.30
2019-02-21T15:12:47.054Z,10.30
2019-02-21T15:15:18.220Z,10.30
2019-02-21T15:17:46.795Z,10.30
2019-02-21T15:20:16.745Z,10.30
2019-02-21T15:22:45.215Z,10.30
2019-02-21T15:25:13.859Z,10.30
2019-02-21T15:27:42.371Z,10.30
2019-02-21T15:30:19.119Z,10.30
2019-02-21T15:32:48.087Z,10.20
2019-02-21T15:35:19.269Z,10.20
2019-02-21T15:37:46.673Z,10.20
2019-02-21T15:40:15.094Z,10.20
2019-02-21T15:42:43.519Z,10.10
2019-02-21T15:45:22.988Z,10.00
2019-02-21T15:47:47.490Z,9.90
2019-02-21T15:50:16.118Z,9.80
2019-02-21T15:52:45.601Z,9.70
2019-02-21T15:55:16.507Z,9.60
2019-02-21T15:57:44.935Z,9.40
2019-02-21T16:00:15.801Z,9.30
2019-02-21T16:02:44.250Z,9.20
2019-02-21T16:05:12.670Z,9.20
2019-02-21T16:07:41.115Z,9.10
2019-02-21T16:10:12.460Z,9.00
2019-02-21T16:12:41.509Z,9.00
2019-02-21T16:15:16.196Z,8.90
2019-02-21T16:17:44.056Z,8.90
2019-02-21T16:20:14.716Z,8.80
2019-02-21T16:22:43.596Z,8.70
2019-02-21T16:25:19.600Z,8.60
2019-02-21T16:27:48.059Z,8.60
2019-02-21T16:30:16.491Z,8.60
2019-02-21T16:32:44.919Z,8.50
2019-02-21T16:35:14.492Z,8.50
2019-02-21T16:37:42.958Z,8.50
2019-02-21T16:40:13.901Z,8.40
2019-02-21T16:42:42.335Z,8.40
2019-02-21T16:45:12.998Z,8.40
2019-02-21T16:47:41.504Z,8.40
2019-02-21T16:50:14.232Z,8.30
2019-02-21T16:52:43.004Z,8.30
2019-02-21T16:55:22.088Z,8.30
2019-02-21T16:57:50.538Z,8.30
2019-02-21T17:00:22.435Z,8.40
2019-02-21T17:02:50.945Z,8.30
2019-02-21T17:05:19.513Z,8.30
2019-02-21T17:07:47.951Z,8.30
2019-02-21T17:10:17.114Z,8.30
2019-02-21T17:12:45.539Z,8.30
2019-02-21T17:15:15.614Z,8.30
2019-02-21T17:17:44.052Z,8.20
2019-02-21T17:20:23.423Z,8.20
2019-02-21T17:22:51.860Z,8.20
2019-02-21T17:25:20.307Z,8.20
2019-02-21T17:27:50.317Z,8.10
2019-02-21T17:30:20.091Z,8.10
2019-02-21T17:32:49.460Z,8.10
2019-02-21T17:35:18.070Z,8.10
2019-02-21T17:37:46.491Z,8.10
2019-02-21T17:40:24.999Z,8.10
2019-02-21T17:42:53.770Z,8.20
2019-02-21T17:45:22.725Z,8.10
2019-02-21T17:47:51.672Z,8.10
2019-02-21T17:50:20.620Z,8.10
2019-02-21T17:52:49.417Z,8.20
2019-02-21T17:55:18.239Z,8.20
2019-02-21T17:57:46.762Z,8.10
2019-02-21T18:00:21.708Z,8.20
2019-02-21T18:03:14.388Z,8.20
2019-02-21T18:05:42.923Z,8.20
2019-02-21T18:08:11.364Z,8.50
2019-02-21T18:10:39.807Z,8.40
2019-02-21T18:13:08.251Z,8.30
2019-02-21T18:15:36.664Z,8.30
2019-02-21T18:18:05.095Z,8.20
2019-02-21T18:20:33.530Z,8.20
2019-02-21T18:23:01.995Z,8.20
2019-02-21T18:25:39.152Z,8.20
2019-02-21T18:28:07.588Z,8.20
2019-02-21T18:30:36.022Z,8.20
2019-02-21T18:33:04.552Z,8.20
2019-02-21T18:35:33.031Z,8.20
2019-02-21T18:38:01.467Z,8.20
2019-02-21T18:40:29.960Z,8.20
2019-02-21T18:42:58.408Z,8.30
2019-02-21T18:45:26.834Z,8.30
2019-02-21T18:47:55.293Z,8.30
2019-02-21T18:50:23.720Z,8.30
2019-02-21T18:52:52.159Z,8.30
2019-02-21T18:55:20.592Z,8.40
2019-02-21T18:57:49.540Z,8.50
2019-02-21T19:00:23.617Z,8.40
2019-02-21T19:02:52.068Z,8.30
2019-02-21T19:05:21.146Z,8.30
2019-02-21T19:07:58.506Z,8.30
2019-02-21T19:10:20.860Z,8.30
2019-02-21T19:12:49.581Z,8.30
2019-02-21T19:15:20.019Z,8.30
2019-02-21T19:17:48.442Z,8.30
2019-02-21T19:20:20.654Z,8.30
2019-02-21T19:22:49.671Z,8.30
2019-02-21T19:25:18.166Z,8.30
2019-02-21T19:27:46.686Z,8.30
2019-02-21T19:30:33.178Z,8.30
2019-02-21T19:33:01.625Z,8.40
2019-02-21T19:35:30.048Z,8.40
2019-02-21T19:38:09.467Z,8.40
2019-02-21T19:40:28.660Z,8.40
2019-02-21T19:42:57.092Z,8.40
2019-02-21T19:45:26.268Z,8.30
2019-02-21T19:47:54.788Z,8.30
2019-02-21T19:50:23.207Z,8.30
2019-02-21T19:52:51.715Z,8.30
2019-02-21T19:55:20.153Z,8.30
2019-02-21T19:57:49.511Z,8.30
2019-02-21T20:00:29.464Z,8.30
2019-02-21T20:02:57.981Z,8.30
2019-02-21T20:05:26.947Z,8.80
2019-02-21T20:07:55.397Z,8.60
2019-02-21T20:10:24.099Z,8.50
2019-02-21T20:12:52.557Z,8.40
2019-02-21T20:15:20.976Z,8.40
2019-02-21T20:17:49.747Z,8.30
2019-02-21T20:20:20.416Z,8.30
2019-02-21T20:22:49.787Z,8.30
2019-02-21T20:25:18.215Z,8.20
2019-02-21T20:27:46.750Z,8.30
2019-02-21T20:30:19.164Z,8.30
2019-02-21T20:32:47.605Z,8.30
2019-02-21T20:35:16.048Z,8.30
2019-02-21T20:37:44.757Z,8.30
2019-02-21T20:40:13.621Z,8.30
2019-02-21T20:42:42.098Z,8.30
2019-02-21T20:45:14.628Z,8.30
2019-02-21T20:47:43.069Z,8.30
2019-02-21T20:50:12.437Z,8.20
2019-02-21T20:52:41.060Z,8.20
2019-02-21T20:55:11.505Z,8.10
2019-02-21T20:57:39.944Z,8.20
2019-02-21T21:00:29.223Z,8.10
2019-02-21T21:02:58.010Z,8.10
2019-02-21T21:05:26.596Z,8.10
2019-02-21T21:07:55.023Z,8.10
2019-02-21T21:10:23.470Z,8.10
2019-02-21T21:12:53.068Z,8.10
2019-02-21T21:15:21.575Z,8.10
2019-02-21T21:17:50.008Z,8.10
2019-02-21T21:20:18.886Z,8.10
2019-02-21T21:22:47.356Z,8.10
2019-02-21T21:25:18.961Z,8.10
2019-02-21T21:27:47.418Z,8.10
2019-02-21T21:30:20.127Z,8.10
2019-02-21T21:32:48.547Z,8.00
2019-02-21T21:35:16.987Z,8.00
2019-02-21T21:37:45.408Z,8.10
2019-02-21T21:40:18.342Z,8.10
2019-02-21T21:42:46.763Z,8.10
2019-02-21T21:45:17.623Z,8.10
2019-02-21T21:47:46.048Z,8.00
2019-02-21T21:50:33.831Z,8.10
2019-02-21T21:53:02.415Z,8.10
2019-02-21T21:55:30.966Z,8.10
2019-02-21T21:57:59.383Z,8.10
2019-02-21T22:00:27.835Z,8.10
2019-02-21T22:02:56.270Z,8.10
2019-02-21T22:05:24.702Z,8.10
2019-02-21T22:07:53.149Z,8.10
2019-02-21T22:10:21.637Z,8.10
2019-02-21T22:12:50.063Z,8.10
2019-02-21T22:15:22.574Z,8.10
2019-02-21T22:17:51.007Z,8.10
2019-02-21T22:20:20.050Z,8.10
2019-02-21T22:22:48.472Z,8.10
2019-02-21T22:25:16.907Z,8.10
2019-02-21T22:27:45.351Z,8.20
2019-02-21T22:30:18.380Z,8.20
2019-02-21T22:33:06.161Z,8.20
2019-02-21T22:35:34.604Z,8.20
2019-02-21T22:38:03.059Z,8.20
2019-02-21T22:40:31.559Z,8.20
2019-02-21T22:43:00.012Z,8.20
2019-02-21T22:45:28.491Z,8.20
2019-02-21T22:47:56.964Z,8.20
2019-02-21T22:50:26.900Z,8.20
2019-02-21T22:52:55.482Z,8.20
2019-02-21T22:55:23.955Z,8.20
2019-02-21T22:57:52.387Z,8.20
2019-02-21T23:00:30.975Z,8.20
2019-02-21T23:03:00.255Z,8.20
2019-02-21T23:05:51.665Z,8.20
2019-02-21T23:08:23.253Z,8.20
2019-02-21T23:10:51.703Z,8.20
2019-02-21T23:13:20.271Z,8.20
2019-02-21T23:15:48.703Z,8.20
2019-02-21T23:18:17.131Z,8.30
2019-02-21T23:20:45.563Z,8.20
2019-02-21T23:23:13.999Z,8.30
2019-02-21T23:25:42.427Z,8.30
2019-02-21T23:28:10.855Z,8.30
2019-02-21T23:30:39.284Z,8.30
2019-02-21T23:33:07.716Z,8.30
2019-02-21T23:35:36.154Z,8.40
2019-02-21T23:38:04.678Z,8.40
2019-02-21T23:40:33.130Z,8.40
2019-02-21T23:43:01.575Z,8.40
2019-02-21T23:45:30.017Z,8.40
2019-02-21T23:47:58.526Z,8.40
2019-02-21T23:50:26.956Z,8.40
2019-02-21T23:52:55.402Z,8.50
2019-02-21T23:55:23.831Z,8.50
2019-02-21T23:57:52.655Z,8.50
